sensor_id;sensor_type;location;lat;lon;timestamp;P1;durP1;ratioP1;P2;durP2;ratioP2
39308;SDS011;26019;47.510;19.122;2023-05-02T00:09:04;7.82;;;2.58;;
39308;SDS011;26019;47.510;19.122;2023-05-02T00:19:05;4.50;;;2.70;;
39308;SDS011;26019;47.510;19.122;2023-05-02T00:29:08;5.83;;;2.67;;
39308;SDS011;26019;47.510;19.122;2023-05-02T00:39:12;3.47;;;3.05;;
39308;SDS011;26019;47.510;19.122;2023-05-02T00:49:13;6.18;;;3.60;;
39308;SDS011;26019;47.510;19.122;2023-05-02T00:59:17;5.55;;;3.47;;
39308;SDS011;26019;47.510;19.122;2023-05-02T01:19:39;6.93;;;3.60;;
39308;SDS011;26019;47.510;19.122;2023-05-02T01:29:48;4.00;;;2.97;;
39308;SDS011;26019;47.510;19.122;2023-05-02T01:39:53;7.80;;;3.10;;
39308;SDS011;26019;47.510;19.122;2023-05-02T01:49:57;3.15;;;2.20;;
39308;SDS011;26019;47.510;19.122;2023-05-02T02:10:10;4.22;;;2.78;;
39308;SDS011;26019;47.510;19.122;2023-05-02T02:20:14;5.28;;;3.45;;
39308;SDS011;26019;47.510;19.122;2023-05-02T02:30:22;7.82;;;5.03;;
39308;SDS011;26019;47.510;19.122;2023-05-02T02:40:27;4.97;;;3.90;;
39308;SDS011;26019;47.510;19.122;2023-05-02T02:50:58;5.53;;;2.80;;
39308;SDS011;26019;47.510;19.122;2023-05-02T03:01:02;4.88;;;2.78;;
39308;SDS011;26019;47.510;19.122;2023-05-02T03:11:07;5.20;;;2.35;;
39308;SDS011;26019;47.510;19.122;2023-05-02T03:21:09;5.67;;;2.47;;
39308;SDS011;26019;47.510;19.122;2023-05-02T03:31:12;3.10;;;2.17;;
39308;SDS011;26019;47.510;19.122;2023-05-02T03:41:17;3.97;;;2.42;;
39308;SDS011;26019;47.510;19.122;2023-05-02T04:01:24;4.93;;;2.70;;
39308;SDS011;26019;47.510;19.122;2023-05-02T04:11:26;6.22;;;3.22;;
39308;SDS011;26019;47.510;19.122;2023-05-02T04:21:28;8.63;;;4.00;;
39308;SDS011;26019;47.510;19.122;2023-05-02T04:31:30;10.47;;;3.63;;
39308;SDS011;26019;47.510;19.122;2023-05-02T04:41:34;6.77;;;3.93;;
39308;SDS011;26019;47.510;19.122;2023-05-02T04:51:37;11.50;;;3.35;;
39308;SDS011;26019;47.510;19.122;2023-05-02T05:11:47;5.90;;;3.80;;
39308;SDS011;26019;47.510;19.122;2023-05-02T05:21:49;14.48;;;4.40;;
39308;SDS011;26019;47.510;19.122;2023-05-02T05:31:51;10.45;;;4.50;;
39308;SDS011;26019;47.510;19.122;2023-05-02T05:41:57;14.90;;;4.50;;
39308;SDS011;26019;47.510;19.122;2023-05-02T05:51:59;11.35;;;4.93;;
39308;SDS011;26019;47.510;19.122;2023-05-02T06:02:01;8.20;;;4.18;;
39308;SDS011;26019;47.510;19.122;2023-05-02T06:12:03;7.93;;;4.17;;
39308;SDS011;26019;47.510;19.122;2023-05-02T06:22:05;6.17;;;3.80;;
39308;SDS011;26019;47.510;19.122;2023-05-02T06:32:12;9.88;;;3.97;;
39308;SDS011;26019;47.510;19.122;2023-05-02T06:42:16;4.93;;;3.38;;
39308;SDS011;26019;47.510;19.122;2023-05-02T06:52:19;7.75;;;3.17;;
39308;SDS011;26019;47.510;19.122;2023-05-02T07:02:21;8.10;;;3.87;;
39308;SDS011;26019;47.510;19.122;2023-05-02T07:12:22;9.82;;;3.15;;
39308;SDS011;26019;47.510;19.122;2023-05-02T07:22:26;3.95;;;3.13;;
39308;SDS011;26019;47.510;19.122;2023-05-02T07:32:29;5.30;;;3.63;;
39308;SDS011;26019;47.510;19.122;2023-05-02T07:42:32;5.82;;;3.13;;
39308;SDS011;26019;47.510;19.122;2023-05-02T07:52:35;5.50;;;3.17;;
39308;SDS011;26019;47.510;19.122;2023-05-02T08:02:37;4.22;;;3.05;;
39308;SDS011;26019;47.510;19.122;2023-05-02T08:22:41;6.53;;;3.40;;
39308;SDS011;26019;47.510;19.122;2023-05-02T08:32:42;9.70;;;3.15;;
39308;SDS011;26019;47.510;19.122;2023-05-02T08:42:44;5.25;;;2.70;;
39308;SDS011;26019;47.510;19.122;2023-05-02T08:52:46;5.82;;;2.60;;
39308;SDS011;26019;47.510;19.122;2023-05-02T09:23:35;4.07;;;2.87;;
39308;SDS011;26019;47.510;19.122;2023-05-02T09:33:42;3.33;;;2.10;;
39308;SDS011;26019;47.510;19.122;2023-05-02T09:43:53;3.25;;;2.17;;
39308;SDS011;26019;47.510;19.122;2023-05-02T09:53:59;7.68;;;3.00;;
39308;SDS011;26019;47.510;19.122;2023-05-02T10:04:01;5.65;;;2.17;;
39308;SDS011;26019;47.510;19.122;2023-05-02T10:14:07;8.63;;;2.08;;
39308;SDS011;26019;47.510;19.122;2023-05-02T10:24:10;2.92;;;2.30;;
39308;SDS011;26019;47.510;19.122;2023-05-02T10:34:19;5.32;;;2.13;;
39308;SDS011;26019;47.510;19.122;2023-05-02T10:44:34;4.47;;;2.27;;
39308;SDS011;26019;47.510;19.122;2023-05-02T10:54:37;5.38;;;2.38;;
39308;SDS011;26019;47.510;19.122;2023-05-02T11:15:11;4.18;;;2.33;;
39308;SDS011;26019;47.510;19.122;2023-05-02T11:25:29;10.48;;;2.50;;
39308;SDS011;26019;47.510;19.122;2023-05-02T11:35:41;4.72;;;2.20;;
39308;SDS011;26019;47.510;19.122;2023-05-02T11:45:45;3.97;;;2.00;;
39308;SDS011;26019;47.510;19.122;2023-05-02T11:55:57;7.57;;;2.25;;
39308;SDS011;26019;47.510;19.122;2023-05-02T12:06:08;3.10;;;2.15;;
39308;SDS011;26019;47.510;19.122;2023-05-02T12:16:14;3.08;;;1.98;;
39308;SDS011;26019;47.510;19.122;2023-05-02T12:26:19;3.72;;;1.85;;
39308;SDS011;26019;47.510;19.122;2023-05-02T12:36:24;8.52;;;1.90;;
39308;SDS011;26019;47.510;19.122;2023-05-02T12:46:28;6.00;;;2.10;;
39308;SDS011;26019;47.510;19.122;2023-05-02T12:56:39;6.63;;;1.85;;
39308;SDS011;26019;47.510;19.122;2023-05-02T13:06:42;6.30;;;2.03;;
39308;SDS011;26019;47.510;19.122;2023-05-02T13:16:51;3.88;;;2.08;;
39308;SDS011;26019;47.510;19.122;2023-05-02T13:26:55;8.38;;;2.00;;
39308;SDS011;26019;47.510;19.122;2023-05-02T13:36:57;3.35;;;1.60;;
39308;SDS011;26019;47.510;19.122;2023-05-02T13:47:00;5.85;;;2.22;;
39308;SDS011;26019;47.510;19.122;2023-05-02T13:57:10;26.08;;;6.68;;
39308;SDS011;26019;47.510;19.122;2023-05-02T14:07:12;9.33;;;2.13;;
39308;SDS011;26019;47.510;19.122;2023-05-02T14:17:15;5.13;;;2.38;;
39308;SDS011;26019;47.510;19.122;2023-05-02T14:27:17;3.63;;;1.77;;
39308;SDS011;26019;47.510;19.122;2023-05-02T14:37:19;5.90;;;2.70;;
39308;SDS011;26019;47.510;19.122;2023-05-02T14:47:21;4.78;;;2.00;;
39308;SDS011;26019;47.510;19.122;2023-05-02T14:57:24;9.93;;;2.10;;
39308;SDS011;26019;47.510;19.122;2023-05-02T15:07:27;2.90;;;2.28;;
39308;SDS011;26019;47.510;19.122;2023-05-02T15:17:29;3.60;;;2.03;;
39308;SDS011;26019;47.510;19.122;2023-05-02T15:27:31;6.97;;;2.15;;
39308;SDS011;26019;47.510;19.122;2023-05-02T15:37:36;5.47;;;2.00;;
39308;SDS011;26019;47.510;19.122;2023-05-02T15:47:41;8.13;;;2.30;;
39308;SDS011;26019;47.510;19.122;2023-05-02T15:57:44;3.65;;;1.95;;
39308;SDS011;26019;47.510;19.122;2023-05-02T16:07:50;4.53;;;2.20;;
39308;SDS011;26019;47.510;19.122;2023-05-02T16:17:56;6.78;;;2.75;;
39308;SDS011;26019;47.510;19.122;2023-05-02T16:27:59;5.30;;;2.00;;
39308;SDS011;26019;47.510;19.122;2023-05-02T16:38:01;6.25;;;2.28;;
39308;SDS011;26019;47.510;19.122;2023-05-02T16:48:04;8.20;;;2.50;;
39308;SDS011;26019;47.510;19.122;2023-05-02T16:58:08;7.63;;;2.30;;
39308;SDS011;26019;47.510;19.122;2023-05-02T17:08:21;2.72;;;1.98;;
39308;SDS011;26019;47.510;19.122;2023-05-02T17:18:22;10.23;;;3.47;;
39308;SDS011;26019;47.510;19.122;2023-05-02T17:28:25;6.63;;;3.10;;
39308;SDS011;26019;47.510;19.122;2023-05-02T17:38:26;7.78;;;3.40;;
39308;SDS011;26019;47.510;19.122;2023-05-02T17:48:33;8.50;;;3.03;;
39308;SDS011;26019;47.510;19.122;2023-05-02T17:58:36;7.80;;;3.95;;
39308;SDS011;26019;47.510;19.122;2023-05-02T18:08:40;7.25;;;3.20;;
39308;SDS011;26019;47.510;19.122;2023-05-02T18:18:51;3.90;;;2.75;;
39308;SDS011;26019;47.510;19.122;2023-05-02T18:39:00;14.30;;;4.47;;
39308;SDS011;26019;47.510;19.122;2023-05-02T18:49:02;7.45;;;4.35;;
39308;SDS011;26019;47.510;19.122;2023-05-02T18:59:14;5.70;;;4.53;;
39308;SDS011;26019;47.510;19.122;2023-05-02T19:09:17;6.20;;;4.13;;
39308;SDS011;26019;47.510;19.122;2023-05-02T19:19:21;5.38;;;4.63;;
39308;SDS011;26019;47.510;19.122;2023-05-02T19:39:25;5.43;;;4.00;;
39308;SDS011;26019;47.510;19.122;2023-05-02T19:59:29;7.45;;;5.75;;
39308;SDS011;26019;47.510;19.122;2023-05-02T20:19:37;12.95;;;7.22;;
39308;SDS011;26019;47.510;19.122;2023-05-02T20:29:43;12.27;;;8.73;;
39308;SDS011;26019;47.510;19.122;2023-05-02T20:39:46;12.85;;;8.35;;
39308;SDS011;26019;47.510;19.122;2023-05-02T20:49:48;14.88;;;10.05;;
39308;SDS011;26019;47.510;19.122;2023-05-02T20:59:50;10.90;;;9.73;;
39308;SDS011;26019;47.510;19.122;2023-05-02T21:09:53;11.13;;;8.23;;
39308;SDS011;26019;47.510;19.122;2023-05-02T21:19:54;11.57;;;9.10;;
39308;SDS011;26019;47.510;19.122;2023-05-02T21:29:57;9.43;;;8.10;;
39308;SDS011;26019;47.510;19.122;2023-05-02T21:39:59;8.43;;;7.53;;
39308;SDS011;26019;47.510;19.122;2023-05-02T21:50:10;8.20;;;6.88;;
39308;SDS011;26019;47.510;19.122;2023-05-02T22:00:12;11.43;;;7.53;;
39308;SDS011;26019;47.510;19.122;2023-05-02T22:10:14;10.20;;;8.32;;
39308;SDS011;26019;47.510;19.122;2023-05-02T22:20:16;8.83;;;7.70;;
39308;SDS011;26019;47.510;19.122;2023-05-02T22:30:18;10.37;;;7.77;;
39308;SDS011;26019;47.510;19.122;2023-05-02T22:40:21;10.68;;;8.52;;
39308;SDS011;26019;47.510;19.122;2023-05-02T23:00:29;9.43;;;8.30;;
39308;SDS011;26019;47.510;19.122;2023-05-02T23:10:35;11.93;;;9.38;;
39308;SDS011;26019;47.510;19.122;2023-05-02T23:20:38;10.35;;;8.05;;
39308;SDS011;26019;47.510;19.122;2023-05-02T23:40:42;13.38;;;10.00;;
39308;SDS011;26019;47.510;19.122;2023-05-02T23:50:44;13.37;;;9.80;;
